Time;durP1;ratioP1;P1;durP2;ratioP2;P2;SDS_P1;SDS_P2;PMS_P1;PMS_P2;Temp;Humidity;BMP_temperature;BMP_pressure;BME280_temperature;BME280_humidity;BME280_pressure;Samples;Min_cycle;Max_cycle;Signal;HPM_P1;HPM_P2
2022/04/03 00:01:33;;;;;;;1.70;1.17;;;;;;;;;;5026108;28;20232;-66
2022/04/03 00:03:58;;;;;;;4.80;1.73;;;;;;;;;;5026840;28;20757;-66
2022/04/03 00:06:23;;;;;;;3.13;1.70;;;;;;;;;;5022988;28;20174;-66
2022/04/03 00:08:49;;;;;;;4.30;1.73;;;;;;;;;;5020413;28;20222;-66
2022/04/03 00:11:15;;;;;;;7.70;1.50;;;;;;;;;;5024939;28;20256;-66
2022/04/03 00:13:41;;;;;;;4.83;1.73;;;;;;;;;;5023321;28;20198;-66
2022/04/03 00:16:07;;;;;;;4.60;1.73;;;;;;;;;;5028080;28;20182;-66
2022/04/03 00:18:33;;;;;;;6.23;1.87;;;;;;;;;;5022835;28;20329;-66
2022/04/03 00:20:59;;;;;;;2.27;1.23;;;;;;;;;;5028736;28;20657;-67
2022/04/03 00:23:25;;;;;;;3.70;1.47;;;;;;;;;;5024299;28;20229;-67
2022/04/03 00:25:51;;;;;;;3.07;1.60;;;;;;;;;;5020755;28;20183;-67
2022/04/03 00:28:17;;;;;;;4.23;1.70;;;;;;;;;;5015584;28;20293;-67
2022/04/03 00:30:44;;;;;;;3.53;1.60;;;;;;;;;;5019857;28;20202;-67
2022/04/03 00:33:11;;;;;;;4.20;1.73;;;;;;;;;;5014221;28;20190;-67
2022/04/03 00:35:36;;;;;;;3.57;1.60;;;;;;;;;;5023661;28;20182;-66
2022/04/03 00:38:02;;;;;;;3.33;1.80;;;;;;;;;;5015499;28;20182;-66
2022/04/03 00:40:27;;;;;;;2.50;1.57;;;;;;;;;;5013981;28;20733;-67
2022/04/03 00:42:53;;;;;;;2.73;1.80;;;;;;;;;;5019097;28;20370;-67
2022/04/03 00:45:19;;;;;;;3.20;1.77;;;;;;;;;;5025878;28;20299;-67
2022/04/03 00:47:45;;;;;;;2.70;1.27;;;;;;;;;;5023720;28;20809;-66
2022/04/03 00:50:11;;;;;;;3.40;1.90;;;;;;;;;;5017393;28;20584;-67
2022/04/03 00:52:37;;;;;;;4.93;1.80;;;;;;;;;;5026023;28;20182;-67
2022/04/03 00:55:03;;;;;;;3.27;2.00;;;;;;;;;;5022474;28;20178;-67
2022/04/03 00:57:29;;;;;;;5.20;1.93;;;;;;;;;;5021985;28;20252;-67
2022/04/03 00:59:55;;;;;;;6.80;1.90;;;;;;;;;;5022117;28;20626;-67
2022/04/03 01:02:20;;;;;;;4.50;1.43;;;;;;;;;;5027925;28;20181;-67
2022/04/03 01:04:46;;;;;;;7.63;1.90;;;;;;;;;;5023736;28;20178;-67
2022/04/03 01:07:12;;;;;;;4.37;1.70;;;;;;;;;;5027626;28;20234;-67
2022/04/03 01:09:38;;;;;;;4.27;2.00;;;;;;;;;;5027215;28;20278;-67
2022/04/03 01:12:05;;;;;;;3.53;1.87;;;;;;;;;;5024296;28;20253;-67
2022/04/03 01:14:35;;;;;;;4.73;1.67;;;;;;;;;;5024409;28;20649;-67
2022/04/03 01:17:02;;;;;;;4.13;1.73;;;;;;;;;;5026489;28;20232;-67
2022/04/03 01:19:27;;;;;;;4.03;1.63;;;;;;;;;;5027668;28;20198;-67
2022/04/03 01:21:53;;;;;;;3.30;1.77;;;;;;;;;;5027561;28;20261;-67
2022/04/03 01:24:20;;;;;;;5.90;1.90;;;;;;;;;;5020196;28;20182;-67
2022/04/03 01:26:47;;;;;;;5.47;2.47;;;;;;;;;;5027699;28;20170;-67
2022/04/03 01:29:12;;;;;;;5.77;1.50;;;;;;;;;;5026650;28;20193;-67
2022/04/03 01:31:37;;;;;;;3.37;1.70;;;;;;;;;;5022874;28;20201;-67
2022/04/03 01:34:03;;;;;;;6.97;2.63;;;;;;;;;;5022917;28;20192;-66
2022/04/03 01:36:29;;;;;;;3.77;2.00;;;;;;;;;;5019683;28;20261;-67
2022/04/03 01:38:54;;;;;;;3.87;1.90;;;;;;;;;;5022299;28;20251;-67
2022/04/03 01:41:20;;;;;;;4.47;2.17;;;;;;;;;;5027180;28;20205;-67
2022/04/03 01:43:45;;;;;;;5.37;2.50;;;;;;;;;;5024565;28;20532;-66
2022/04/03 01:46:10;;;;;;;4.43;2.23;;;;;;;;;;5022166;28;20192;-66
2022/04/03 01:48:36;;;;;;;3.83;2.07;;;;;;;;;;5010174;28;20193;-66
2022/04/03 01:51:01;;;;;;;3.77;2.37;;;;;;;;;;5015308;28;20182;-65
2022/04/03 01:53:27;;;;;;;5.27;2.57;;;;;;;;;;5024272;28;20736;-67
2022/04/03 01:56:05;;;;;;;4.17;1.87;;;;;;;;;;5026119;28;20186;-67
2022/04/03 01:58:31;;;;;;;6.33;2.50;;;;;;;;;;5018843;28;20600;-67
2022/04/03 02:00:56;;;;;;;3.37;2.10;;;;;;;;;;5024194;28;20281;-67
2022/04/03 02:03:22;;;;;;;3.30;2.03;;;;;;;;;;5020876;28;20730;-67
2022/04/03 02:05:47;;;;;;;3.93;2.07;;;;;;;;;;5007326;28;20175;-67
2022/04/03 02:08:13;;;;;;;6.47;2.50;;;;;;;;;;5014541;28;20221;-67
2022/04/03 02:10:38;;;;;;;6.17;2.23;;;;;;;;;;5014291;28;20174;-66
2022/04/03 02:13:04;;;;;;;3.20;1.87;;;;;;;;;;5008184;28;20187;-67
2022/04/03 02:15:30;;;;;;;4.97;2.53;;;;;;;;;;5026470;28;20185;-67
2022/04/03 02:17:56;;;;;;;4.60;2.00;;;;;;;;;;5016893;28;20646;-67
2022/04/03 02:20:21;;;;;;;2.87;1.80;;;;;;;;;;5026016;28;20213;-67
2022/04/03 02:22:47;;;;;;;6.13;2.27;;;;;;;;;;5019623;28;20186;-67
2022/04/03 02:25:13;;;;;;;6.67;2.17;;;;;;;;;;5018195;28;20189;-67
2022/04/03 02:27:40;;;;;;;5.17;2.20;;;;;;;;;;5016348;28;20239;-68
2022/04/03 02:30:08;;;;;;;3.33;1.97;;;;;;;;;;5018261;28;20218;-67
2022/04/03 02:32:35;;;;;;;3.10;1.67;;;;;;;;;;5018883;28;20277;-67
2022/04/03 02:35:00;;;;;;;3.10;1.80;;;;;;;;;;5020990;28;20185;-67
2022/04/03 02:37:25;;;;;;;4.40;1.87;;;;;;;;;;5017181;28;20190;-66
2022/04/03 02:39:51;;;;;;;5.97;2.53;;;;;;;;;;5024881;28;20587;-66
2022/04/03 02:42:16;;;;;;;4.33;1.87;;;;;;;;;;5023359;28;20192;-66
2022/04/03 02:44:42;;;;;;;5.30;2.10;;;;;;;;;;5026831;28;20181;-67
2022/04/03 02:47:07;;;;;;;3.43;1.50;;;;;;;;;;5026207;28;20185;-67
2022/04/03 02:49:33;;;;;;;5.50;1.80;;;;;;;;;;5024384;28;20524;-66
2022/04/03 02:51:58;;;;;;;3.60;2.20;;;;;;;;;;5021475;28;20186;-66
2022/04/03 02:54:23;;;;;;;4.23;1.83;;;;;;;;;;5013451;28;20181;-66
2022/04/03 02:56:49;;;;;;;2.17;1.30;;;;;;;;;;5019069;28;20189;-67
2022/04/03 02:59:14;;;;;;;4.43;2.23;;;;;;;;;;5023728;28;20236;-67
2022/04/03 03:01:39;;;;;;;4.27;2.70;;;;;;;;;;5026827;28;20278;-67
2022/04/03 03:04:04;;;;;;;5.00;2.17;;;;;;;;;;5023682;28;20642;-68
2022/04/03 03:06:30;;;;;;;5.40;2.13;;;;;;;;;;5014842;28;20748;-67
2022/04/03 03:08:55;;;;;;;4.70;2.10;;;;;;;;;;5022439;28;20313;-66
2022/04/03 03:11:21;;;;;;;2.90;1.70;;;;;;;;;;5019513;28;20266;-67
2022/04/03 03:13:46;;;;;;;5.30;1.67;;;;;;;;;;5016929;28;20460;-66
2022/04/03 03:16:12;;;;;;;3.57;1.80;;;;;;;;;;5022751;28;20209;-67
2022/04/03 03:18:37;;;;;;;3.47;1.80;;;;;;;;;;5018345;28;20225;-67
2022/04/03 03:21:02;;;;;;;3.10;1.80;;;;;;;;;;5013545;28;20238;-67
2022/04/03 03:23:29;;;;;;;6.17;1.70;;;;;;;;;;5026413;28;20544;-67
2022/04/03 03:25:54;;;;;;;4.53;1.93;;;;;;;;;;5019143;28;20198;-67
2022/04/03 03:28:20;;;;;;;4.93;1.80;;;;;;;;;;5017299;28;20549;-67
2022/04/03 03:30:45;;;;;;;4.30;1.73;;;;;;;;;;5022005;28;20590;-67
2022/04/03 03:33:11;;;;;;;3.40;1.70;;;;;;;;;;5023875;28;20248;-67
2022/04/03 03:35:36;;;;;;;3.20;1.80;;;;;;;;;;5028986;28;20190;-68
2022/04/03 03:38:02;;;;;;;6.20;1.80;;;;;;;;;;5025005;28;20197;-68
2022/04/03 03:40:28;;;;;;;2.70;1.70;;;;;;;;;;5029682;28;20206;-67
2022/04/03 03:42:53;;;;;;;6.47;1.90;;;;;;;;;;5029668;28;20218;-67
2022/04/03 03:45:19;;;;;;;3.90;1.60;;;;;;;;;;5023751;28;20263;-67
2022/04/03 03:47:46;;;;;;;7.33;1.80;;;;;;;;;;5018388;28;20296;-68
2022/04/03 03:50:12;;;;;;;6.70;2.20;;;;;;;;;;5022621;28;20331;-68
2022/04/03 03:52:38;;;;;;;5.53;1.87;;;;;;;;;;5026980;28;20685;-68
2022/04/03 03:55:04;;;;;;;3.13;1.73;;;;;;;;;;5022808;28;20178;-68
2022/04/03 03:57:29;;;;;;;2.77;1.50;;;;;;;;;;5021877;28;20185;-67
2022/04/03 03:59:55;;;;;;;3.03;1.67;;;;;;;;;;5020762;28;20623;-67
2022/04/03 04:02:21;;;;;;;7.53;1.60;;;;;;;;;;5013811;28;20929;-68
2022/04/03 04:04:46;;;;;;;3.93;1.77;;;;;;;;;;5023472;28;20869;-67
2022/04/03 04:07:12;;;;;;;6.00;1.97;;;;;;;;;;5020023;28;20237;-67
2022/04/03 04:09:39;;;;;;;3.97;1.73;;;;;;;;;;5022963;28;20183;-68
2022/04/03 04:12:05;;;;;;;4.43;1.80;;;;;;;;;;5022354;28;20664;-68
2022/04/03 04:14:30;;;;;;;2.53;1.40;;;;;;;;;;5029655;28;20471;-68
2022/04/03 04:16:56;;;;;;;3.03;1.87;;;;;;;;;;5024471;28;20448;-67
2022/04/03 04:19:21;;;;;;;3.50;1.80;;;;;;;;;;5029174;28;20268;-67
2022/04/03 04:21:46;;;;;;;4.17;2.17;;;;;;;;;;5017100;28;20190;-67
2022/04/03 04:24:12;;;;;;;3.97;1.70;;;;;;;;;;5021468;28;20825;-68
2022/04/03 04:26:38;;;;;;;4.87;2.00;;;;;;;;;;5013964;28;20264;-68
2022/04/03 04:29:04;;;;;;;4.80;2.07;;;;;;;;;;5022157;28;20187;-68
2022/04/03 04:31:29;;;;;;;6.23;1.80;;;;;;;;;;5011529;28;20202;-67
2022/04/03 04:33:54;;;;;;;3.57;1.53;;;;;;;;;;5021465;28;20186;-68
2022/04/03 04:36:20;;;;;;;2.97;1.57;;;;;;;;;;5015701;28;20642;-68
2022/04/03 04:38:45;;;;;;;3.33;1.87;;;;;;;;;;5019982;28;20661;-68
2022/04/03 04:41:10;;;;;;;3.77;1.80;;;;;;;;;;5023387;28;20293;-67
2022/04/03 04:43:36;;;;;;;6.73;1.87;;;;;;;;;;5015157;28;20662;-68
2022/04/03 04:46:01;;;;;;;4.03;2.10;;;;;;;;;;5018033;28;20194;-67
2022/04/03 04:48:27;;;;;;;3.87;2.00;;;;;;;;;;5026771;28;20190;-68
2022/04/03 04:50:52;;;;;;;2.90;1.60;;;;;;;;;;5020242;28;20182;-68
2022/04/03 04:53:18;;;;;;;2.93;1.73;;;;;;;;;;5015434;28;20201;-68
2022/04/03 04:55:43;;;;;;;3.97;2.03;;;;;;;;;;5019846;28;20607;-67
2022/04/03 04:58:09;;;;;;;2.70;1.70;;;;;;;;;;5016440;28;20194;-67
2022/04/03 05:00:34;;;;;;;3.90;2.17;;;;;;;;;;5018473;28;20219;-67
2022/04/03 05:03:00;;;;;;;6.03;2.67;;;;;;;;;;5024536;28;20266;-67
2022/04/03 05:05:27;;;;;;;6.10;2.30;;;;;;;;;;5018087;28;20210;-67
2022/04/03 05:07:57;;;;;;;7.97;2.43;;;;;;;;;;5021720;28;20336;-68
2022/04/03 05:10:24;;;;;;;3.97;2.20;;;;;;;;;;5025727;28;20186;-67
2022/04/03 05:12:50;;;;;;;4.43;2.43;;;;;;;;;;5022087;28;20186;-67
2022/04/03 05:15:17;;;;;;;5.73;2.33;;;;;;;;;;5025874;28;20186;-67
2022/04/03 05:17:44;;;;;;;4.90;2.53;;;;;;;;;;5024272;28;20190;-68
2022/04/03 05:20:14;;;;;;;6.73;2.80;;;;;;;;;;5025682;28;20643;-67
2022/04/03 05:22:40;;;;;;;5.93;2.60;;;;;;;;;;5023762;28;20197;-68
2022/04/03 05:25:06;;;;;;;5.37;2.40;;;;;;;;;;5017754;28;20196;-67
2022/04/03 05:27:32;;;;;;;4.00;2.23;;;;;;;;;;5027253;28;20198;-68
2022/04/03 05:29:58;;;;;;;4.43;2.10;;;;;;;;;;5016322;28;20175;-67
2022/04/03 05:32:28;;;;;;;5.77;2.70;;;;;;;;;;5016228;28;20257;-68
2022/04/03 05:34:55;;;;;;;5.33;2.50;;;;;;;;;;5022321;28;20183;-68
2022/04/03 05:37:21;;;;;;;5.37;2.30;;;;;;;;;;5024727;28;20182;-67
2022/04/03 05:39:47;;;;;;;4.90;2.33;;;;;;;;;;5020816;28;20202;-67
2022/04/03 05:42:12;;;;;;;5.07;2.37;;;;;;;;;;5023528;28;20554;-67
2022/04/03 05:44:38;;;;;;;5.57;2.30;;;;;;;;;;5023890;28;20224;-67
2022/04/03 05:47:04;;;;;;;8.43;2.53;;;;;;;;;;4328006;28;10000694;-67
2022/04/03 05:49:30;;;;;;;8.43;3.10;;;;;;;;;;5023400;28;20196;-67
2022/04/03 05:51:55;;;;;;;3.93;2.20;;;;;;;;;;5020520;28;20194;-67
2022/04/03 05:54:20;;;;;;;5.70;2.63;;;;;;;;;;5022744;28;20206;-67
2022/04/03 05:56:46;;;;;;;5.80;3.00;;;;;;;;;;5019274;28;20579;-68
2022/04/03 05:59:12;;;;;;;4.73;2.47;;;;;;;;;;5017949;28;20178;-67
2022/04/03 06:01:37;;;;;;;4.87;2.47;;;;;;;;;;5018220;28;20197;-66
2022/04/03 06:04:03;;;;;;;4.13;2.47;;;;;;;;;;5017896;28;20198;-67
2022/04/03 06:06:28;;;;;;;5.87;2.70;;;;;;;;;;5016748;28;20182;-67
2022/04/03 06:08:53;;;;;;;5.97;2.87;;;;;;;;;;5019131;28;20236;-67
2022/04/03 06:11:19;;;;;;;5.57;2.73;;;;;;;;;;5017284;28;20452;-67
2022/04/03 06:13:44;;;;;;;3.93;2.50;;;;;;;;;;5021406;28;20242;-67
2022/04/03 06:16:10;;;;;;;5.10;2.63;;;;;;;;;;5019776;28;20564;-68
2022/04/03 06:18:35;;;;;;;5.00;2.77;;;;;;;;;;5018922;28;20201;-68
2022/04/03 06:21:00;;;;;;;5.77;2.90;;;;;;;;;;5018860;28;20308;-67
2022/04/03 06:23:26;;;;;;;5.43;2.30;;;;;;;;;;5020439;28;20209;-67
2022/04/03 06:25:54;;;;;;;6.20;2.33;;;;;;;;;;5019788;28;20228;-67
2022/04/03 06:28:19;;;;;;;5.37;1.93;;;;;;;;;;5019888;28;20198;-68
2022/04/03 06:30:46;;;;;;;4.97;2.10;;;;;;;;;;5019382;28;20700;-68
2022/04/03 06:33:11;;;;;;;6.13;2.27;;;;;;;;;;5021049;28;20182;-68
2022/04/03 06:35:37;;;;;;;4.27;2.60;;;;;;;;;;5020100;28;20276;-68
2022/04/03 06:38:02;;;;;;;4.33;2.20;;;;;;;;;;5020763;28;20192;-68
2022/04/03 06:40:28;;;;;;;7.80;2.07;;;;;;;;;;5017254;28;20571;-68
2022/04/03 06:42:54;;;;;;;5.60;2.13;;;;;;;;;;5019476;28;20494;-68
2022/04/03 06:45:19;;;;;;;6.10;2.10;;;;;;;;;;5016348;28;20281;-68
2022/04/03 06:47:45;;;;;;;3.47;2.07;;;;;;;;;;5018350;28;20547;-68
2022/04/03 06:50:11;;;;;;;4.90;2.10;;;;;;;;;;5013902;28;20187;-67
2022/04/03 06:52:37;;;;;;;4.03;1.87;;;;;;;;;;5019318;28;20401;-67
2022/04/03 06:55:04;;;;;;;4.67;1.80;;;;;;;;;;5019914;28;20780;-67
2022/04/03 06:57:29;;;;;;;3.20;1.70;;;;;;;;;;5020489;28;20317;-68
2022/04/03 06:59:54;;;;;;;4.13;2.33;;;;;;;;;;5022579;28;20317;-68
2022/04/03 07:02:20;;;;;;;6.43;2.53;;;;;;;;;;5013159;28;20182;-67
2022/04/03 07:04:45;;;;;;;7.97;2.27;;;;;;;;;;5021977;28;20182;-68
2022/04/03 07:07:11;;;;;;;6.53;2.33;;;;;;;;;;5018939;28;20217;-68
2022/04/03 07:09:40;;;;;;;6.23;2.50;;;;;;;;;;5018008;28;20211;-68
2022/04/03 07:12:06;;;;;;;5.57;2.47;;;;;;;;;;5016665;28;20736;-68
2022/04/03 07:14:31;;;;;;;5.20;2.77;;;;;;;;;;5021353;28;20189;-68
2022/04/03 07:16:57;;;;;;;4.97;2.30;;;;;;;;;;5015812;28;20174;-68
2022/04/03 07:19:22;;;;;;;6.67;2.33;;;;;;;;;;5018773;28;20181;-68
2022/04/03 07:21:50;;;;;;;5.90;2.63;;;;;;;;;;5019566;28;20236;-68
2022/04/03 07:24:15;;;;;;;4.30;2.40;;;;;;;;;;5021049;28;20300;-68
2022/04/03 07:26:41;;;;;;;5.93;2.47;;;;;;;;;;5017636;28;20588;-68
2022/04/03 07:29:06;;;;;;;5.33;3.00;;;;;;;;;;5018627;28;20183;-68
2022/04/03 07:31:32;;;;;;;3.80;2.63;;;;;;;;;;5015745;28;20190;-68
2022/04/03 07:33:57;;;;;;;7.53;2.60;;;;;;;;;;5020592;28;20194;-68
2022/04/03 07:36:23;;;;;;;3.70;2.40;;;;;;;;;;5019123;28;20232;-68
2022/04/03 07:38:48;;;;;;;4.67;2.60;;;;;;;;;;5019903;28;20228;-67
2022/04/03 07:41:13;;;;;;;7.07;2.30;;;;;;;;;;5021656;28;20197;-67
2022/04/03 07:43:39;;;;;;;3.57;2.50;;;;;;;;;;5023345;28;20196;-68
2022/04/03 07:46:04;;;;;;;5.83;2.77;;;;;;;;;;5016464;28;20179;-68
2022/04/03 07:48:29;;;;;;;5.23;2.67;;;;;;;;;;5014789;28;20186;-67
2022/04/03 07:50:54;;;;;;;5.13;2.60;;;;;;;;;;5021983;28;20596;-67
2022/04/03 07:53:20;;;;;;;7.17;3.27;;;;;;;;;;5024146;28;20662;-68
2022/04/03 07:55:46;;;;;;;4.17;2.40;;;;;;;;;;5024242;28;20208;-68
2022/04/03 07:58:11;;;;;;;3.23;2.20;;;;;;;;;;5023144;28;20616;-67
2022/04/03 08:00:37;;;;;;;5.67;2.10;;;;;;;;;;5018371;28;20199;-67
2022/04/03 08:03:02;;;;;;;3.93;2.00;;;;;;;;;;5016800;28;20215;-68
2022/04/03 08:05:27;;;;;;;3.67;2.07;;;;;;;;;;5023588;28;20253;-69
2022/04/03 08:07:55;;;;;;;3.97;1.80;;;;;;;;;;5021741;28;20257;-67
2022/04/03 08:10:21;;;;;;;3.90;1.50;;;;;;;;;;5024777;28;20236;-67
2022/04/03 08:12:49;;;;;;;3.53;1.50;;;;;;;;;;5020971;28;20182;-67
2022/04/03 08:15:16;;;;;;;3.53;1.40;;;;;;;;;;5020904;28;20182;-68
2022/04/03 08:17:42;;;;;;;2.07;1.30;;;;;;;;;;5023794;28;20182;-68
2022/04/03 08:20:13;;;;;;;2.70;1.40;;;;;;;;;;5025120;28;20837;-68
2022/04/03 08:22:39;;;;;;;3.23;1.30;;;;;;;;;;5021690;28;20178;-68
2022/04/03 08:25:06;;;;;;;2.50;1.00;;;;;;;;;;5026285;28;20178;-69
2022/04/03 08:27:53;;;;;;;2.93;1.10;;;;;;;;;;5027561;28;20211;-68
2022/04/03 08:30:26;;;;;;;2.60;1.10;;;;;;;;;;5025642;28;20605;-68
2022/04/03 08:32:53;;;;;;;3.00;1.17;;;;;;;;;;5026709;28;20194;-68
2022/04/03 08:35:19;;;;;;;4.87;1.03;;;;;;;;;;5026344;28;20672;-69
2022/04/03 08:37:46;;;;;;;3.03;1.20;;;;;;;;;;5025845;28;20340;-68
2022/04/03 08:40:13;;;;;;;4.63;1.60;;;;;;;;;;5025500;28;20558;-68
2022/04/03 08:42:39;;;;;;;4.30;1.00;;;;;;;;;;5024496;28;20182;-68
2022/04/03 08:45:07;;;;;;;5.73;1.00;;;;;;;;;;5022736;28;20209;-68
2022/04/03 08:47:50;;;;;;;2.40;1.20;;;;;;;;;;5026742;28;20367;-68
2022/04/03 08:50:17;;;;;;;5.80;1.10;;;;;;;;;;5023586;28;20205;-68
2022/04/03 08:52:46;;;;;;;3.03;0.90;;;;;;;;;;5025053;28;20521;-68
2022/04/03 08:55:11;;;;;;;2.70;1.00;;;;;;;;;;5023462;28;20225;-68
2022/04/03 08:57:36;;;;;;;1.30;1.00;;;;;;;;;;5026205;28;20174;-68
2022/04/03 09:00:04;;;;;;;2.47;0.90;;;;;;;;;;5025462;28;20796;-68
2022/04/03 09:02:29;;;;;;;1.73;0.90;;;;;;;;;;5025688;28;20271;-68
2022/04/03 09:04:55;;;;;;;2.97;1.10;;;;;;;;;;5024020;28;20306;-67
2022/04/03 09:07:20;;;;;;;3.27;1.13;;;;;;;;;;5024643;28;21719;-67
2022/04/03 09:09:56;;;;;;;3.13;0.70;;;;;;;;;;5023696;28;20708;-68
2022/04/03 09:12:21;;;;;;;1.30;0.50;;;;;;;;;;5024518;28;20708;-68
2022/04/03 09:14:52;;;;;;;4.37;0.80;;;;;;;;;;5024572;28;20304;-68
2022/04/03 09:17:38;;;;;;;5.43;1.07;;;;;;;;;;5021428;28;20536;-68
2022/04/03 09:20:12;;;;;;;2.93;0.63;;;;;;;;;;5023394;28;20193;-68
2022/04/03 09:22:39;;;;;;;2.87;0.73;;;;;;;;;;5025470;28;20717;-68
2022/04/03 09:25:12;;;;;;;2.70;0.93;;;;;;;;;;5025630;28;20602;-68
2022/04/03 09:27:51;;;;;;;0.60;0.50;;;;;;;;;;5020088;28;20237;-68
2022/04/03 09:30:18;;;;;;;2.10;0.70;;;;;;;;;;5024439;28;20201;-67
2022/04/03 09:32:50;;;;;;;1.70;0.67;;;;;;;;;;5026258;28;20213;-67
2022/04/03 09:35:21;;;;;;;3.63;0.77;;;;;;;;;;5024291;28;20205;-66
2022/04/03 09:38:08;;;;;;;1.20;0.60;;;;;;;;;;5023518;28;21962;-67
2022/04/03 09:40:35;;;;;;;3.53;0.60;;;;;;;;;;5023345;28;20355;-68
2022/04/03 09:43:21;;;;;;;1.23;0.50;;;;;;;;;;5027150;28;20186;-67
2022/04/03 09:45:52;;;;;;;3.03;0.60;;;;;;;;;;5027108;28;20182;-68
2022/04/03 09:48:23;;;;;;;1.10;0.50;;;;;;;;;;5024986;28;20577;-68
2022/04/03 09:51:06;;;;;;;3.37;0.70;;;;;;;;;;5024279;28;20254;-67
2022/04/03 09:53:52;;;;;;;1.57;0.50;;;;;;;;;;5022354;28;20264;-68
2022/04/03 09:56:23;;;;;;;2.60;0.73;;;;;;;;;;5021408;28;20273;-68
2022/04/03 09:58:51;;;;;;;3.33;0.67;;;;;;;;;;5025704;28;20189;-68
2022/04/03 10:01:24;;;;;;;0.83;0.40;;;;;;;;;;5025007;28;20618;-69
2022/04/03 10:03:51;;;;;;;0.80;0.60;;;;;;;;;;5024182;28;20211;-68
2022/04/03 10:06:17;;;;;;;2.57;0.50;;;;;;;;;;5022349;28;20277;-67
2022/04/03 10:08:46;;;;;;;3.83;0.73;;;;;;;;;;5024744;28;20292;-67
2022/04/03 10:11:12;;;;;;;2.33;1.03;;;;;;;;;;5024565;28;20512;-68
2022/04/03 10:13:38;;;;;;;8.03;0.60;;;;;;;;;;5023214;28;20186;-68
2022/04/03 10:16:04;;;;;;;1.87;0.50;;;;;;;;;;5021884;28;20198;-68
2022/04/03 10:18:30;;;;;;;2.70;0.50;;;;;;;;;;5020234;28;20555;-67
2022/04/03 10:20:55;;;;;;;1.33;0.50;;;;;;;;;;5021746;28;20210;-67
2022/04/03 10:23:24;;;;;;;1.23;0.50;;;;;;;;;;5023735;28;20252;-67
2022/04/03 10:25:51;;;;;;;3.30;0.60;;;;;;;;;;5023134;28;20174;-67
2022/04/03 10:28:18;;;;;;;1.07;0.50;;;;;;;;;;5022733;28;20560;-67
2022/04/03 10:30:44;;;;;;;3.47;0.50;;;;;;;;;;5026679;28;20190;-67
2022/04/03 10:33:20;;;;;;;4.13;0.83;;;;;;;;;;5021645;28;21586;-67
2022/04/03 10:36:01;;;;;;;5.33;1.67;;;;;;;;;;5026522;28;20527;-67
2022/04/03 10:38:37;;;;;;;1.77;0.50;;;;;;;;;;5023573;28;20182;-67
2022/04/03 10:41:05;;;;;;;1.37;0.60;;;;;;;;;;5025767;28;20204;-67
2022/04/03 10:43:31;;;;;;;2.00;0.40;;;;;;;;;;5023756;28;20186;-67
2022/04/03 10:45:56;;;;;;;1.47;0.53;;;;;;;;;;5024691;28;20648;-67
2022/04/03 10:48:22;;;;;;;2.40;0.50;;;;;;;;;;5023485;28;20228;-67
2022/04/03 10:51:08;;;;;;;2.90;0.55;;;;;;;;;;5024414;28;20186;-67
2022/04/03 10:53:42;;;;;;;4.68;1.10;;;;;;;;;;5023970;28;20177;-67
2022/04/03 10:56:10;;;;;;;0.97;0.50;;;;;;;;;;5026087;28;20327;-67
2022/04/03 10:58:49;;;;;;;1.35;0.50;;;;;;;;;;5022918;28;20187;-66
2022/04/03 11:01:26;;;;;;;2.55;0.47;;;;;;;;;;5023854;28;20228;-67
2022/04/03 11:04:13;;;;;;;3.22;0.50;;;;;;;;;;5024583;28;20258;-66
2022/04/03 11:06:40;;;;;;;1.52;0.55;;;;;;;;;;5020308;28;20192;-66
2022/04/03 11:09:07;;;;;;;2.88;0.30;;;;;;;;;;5023260;28;20194;-67
2022/04/03 11:11:51;;;;;;;0.35;0.20;;;;;;;;;;5023659;28;20236;-67
2022/04/03 11:14:52;;;;;;;4.35;0.75;;;;;;;;;;5022399;28;20228;-68
2022/04/03 11:17:38;;;;;;;3.03;0.40;;;;;;;;;;5021073;28;20656;-68
2022/04/03 11:20:05;;;;;;;0.93;0.57;;;;;;;;;;5014271;28;20209;-67
2022/04/03 11:22:31;;;;;;;3.05;0.40;;;;;;;;;;5023282;28;20514;-67
2022/04/03 11:24:57;;;;;;;0.60;0.28;;;;;;;;;;5022976;28;20248;-67
2022/04/03 11:27:22;;;;;;;3.30;0.50;;;;;;;;;;5019947;28;20256;-68
2022/04/03 11:29:49;;;;;;;1.70;0.45;;;;;;;;;;5015884;28;20611;-67
2022/04/03 11:32:15;;;;;;;1.08;0.30;;;;;;;;;;5023494;28;20241;-67
2022/04/03 11:34:41;;;;;;;1.27;0.30;;;;;;;;;;5019183;28;20194;-67
2022/04/03 11:37:08;;;;;;;3.17;0.40;;;;;;;;;;5023780;28;20182;-67
2022/04/03 11:39:36;;;;;;;1.60;0.40;;;;;;;;;;5025824;28;20221;-67
2022/04/03 11:42:06;;;;;;;2.47;0.95;;;;;;;;;;5024891;28;20182;-68
2022/04/03 11:44:34;;;;;;;3.15;0.90;;;;;;;;;;5022688;28;20654;-67
2022/04/03 11:47:00;;;;;;;1.50;0.40;;;;;;;;;;5022230;28;20261;-68
2022/04/03 11:49:28;;;;;;;0.65;0.30;;;;;;;;;;5023745;28;20182;-68
2022/04/03 11:51:57;;;;;;;2.10;0.43;;;;;;;;;;5022381;28;20178;-68
2022/04/03 11:54:25;;;;;;;1.17;0.45;;;;;;;;;;5025459;28;20181;-67
2022/04/03 11:56:57;;;;;;;1.23;0.45;;;;;;;;;;5027961;28;20186;-67
2022/04/03 11:59:22;;;;;;;1.70;0.38;;;;;;;;;;5025641;28;20212;-68
2022/04/03 12:01:51;;;;;;;1.55;0.35;;;;;;;;;;5028763;28;20688;-67
2022/04/03 12:04:17;;;;;;;1.15;0.40;;;;;;;;;;5026494;28;20205;-67
2022/04/03 12:06:45;;;;;;;1.90;0.40;;;;;;;;;;5028445;28;20647;-68
2022/04/03 12:09:13;;;;;;;2.75;0.30;;;;;;;;;;5017236;28;20201;-67
2022/04/03 12:11:40;;;;;;;0.90;0.40;;;;;;;;;;5026205;28;20182;-68
2022/04/03 12:14:07;;;;;;;1.10;0.65;;;;;;;;;;5027331;28;20418;-67
2022/04/03 12:16:37;;;;;;;1.92;0.70;;;;;;;;;;5025256;28;20198;-67
2022/04/03 12:19:03;;;;;;;1.90;0.70;;;;;;;;;;5022923;28;20183;-67
2022/04/03 12:21:51;;;;;;;1.63;0.68;;;;;;;;;;5025363;28;20280;-68
2022/04/03 12:24:23;;;;;;;2.17;0.70;;;;;;;;;;5021231;28;20244;-67
2022/04/03 12:26:48;;;;;;;1.55;0.65;;;;;;;;;;5026668;28;20665;-68
2022/04/03 12:29:14;;;;;;;1.38;0.68;;;;;;;;;;5024256;28;20402;-68
2022/04/03 12:31:40;;;;;;;2.70;0.70;;;;;;;;;;5025972;28;20259;-68
2022/04/03 12:34:15;;;;;;;2.85;1.10;;;;;;;;;;5025410;28;20182;-68
2022/04/03 12:36:48;;;;;;;2.42;0.73;;;;;;;;;;5022178;28;20273;-68
2022/04/03 12:39:39;;;;;;;3.28;0.80;;;;;;;;;;5025260;28;20185;-68
2022/04/03 12:42:23;;;;;;;2.75;0.70;;;;;;;;;;5025555;28;20182;-68
2022/04/03 12:45:13;;;;;;;2.90;0.80;;;;;;;;;;5022596;28;20194;-67
2022/04/03 12:47:45;;;;;;;2.38;0.80;;;;;;;;;;5026110;28;20218;-67
2022/04/03 12:50:25;;;;;;;2.20;0.50;;;;;;;;;;5024677;28;20578;-67
2022/04/03 12:52:56;;;;;;;1.40;0.70;;;;;;;;;;5018613;28;20182;-67
2022/04/03 12:55:24;;;;;;;2.85;0.90;;;;;;;;;;5014610;28;20186;-68
2022/04/03 13:01:11;;;;;;;1.50;0.70;;;;;;;;;;5012924;28;20242;-68
2022/04/03 13:03:44;;;;;;;2.40;0.80;;;;;;;;;;5009746;28;20191;-68
2022/04/03 13:06:26;;;;;;;2.17;0.80;;;;;;;;;;5004005;28;20241;-68
2022/04/03 13:08:54;;;;;;;2.27;0.90;;;;;;;;;;5007144;28;20226;-68
2022/04/03 13:11:46;;;;;;;3.60;1.10;;;;;;;;;;5016488;28;20178;-68
2022/04/03 13:14:35;;;;;;;3.53;1.10;;;;;;;;;;5006901;28;20560;-69
2022/04/03 13:17:02;;;;;;;3.27;1.30;;;;;;;;;;5013026;28;20636;-69
2022/04/03 13:19:30;;;;;;;1.20;1.00;;;;;;;;;;5013880;28;20546;-68
2022/04/03 13:21:57;;;;;;;1.20;0.83;;;;;;;;;;5018212;28;20198;-68
2022/04/03 13:24:23;;;;;;;0.80;0.68;;;;;;;;;;5022697;28;20525;-68
2022/04/03 13:26:49;;;;;;;1.90;1.05;;;;;;;;;;5015181;28;20199;-67
2022/04/03 13:29:16;;;;;;;1.50;0.45;;;;;;;;;;5023457;28;20198;-67
2022/04/03 13:31:41;;;;;;;1.85;0.43;;;;;;;;;;5019213;28;20209;-68
2022/04/03 13:34:08;;;;;;;2.72;1.67;;;;;;;;;;5013381;28;20186;-68
2022/04/03 13:36:34;;;;;;;0.85;0.50;;;;;;;;;;5012389;28;20261;-68
2022/04/03 13:39:02;;;;;;;2.28;0.50;;;;;;;;;;5015891;28;20673;-68
2022/04/03 13:41:28;;;;;;;1.02;0.50;;;;;;;;;;5015472;28;20198;-67
2022/04/03 13:43:53;;;;;;;1.85;0.45;;;;;;;;;;5026681;28;20202;-67
2022/04/03 13:46:19;;;;;;;0.77;0.50;;;;;;;;;;5024710;28;20313;-68
2022/04/03 13:48:44;;;;;;;3.78;0.60;;;;;;;;;;5013765;28;20197;-68
2022/04/03 13:51:12;;;;;;;2.35;0.60;;;;;;;;;;5027697;28;20562;-68
2022/04/03 13:53:38;;;;;;;0.82;0.40;;;;;;;;;;5021622;28;20529;-68
2022/04/03 13:56:05;;;;;;;3.65;0.50;;;;;;;;;;5026709;28;20614;-67
2022/04/03 13:58:31;;;;;;;3.15;0.50;;;;;;;;;;5027231;28;20257;-68
2022/04/03 14:00:58;;;;;;;0.57;0.40;;;;;;;;;;5020853;28;20205;-68
2022/04/03 14:03:25;;;;;;;0.70;0.60;;;;;;;;;;5016970;28;20177;-68
2022/04/03 14:05:51;;;;;;;1.23;0.50;;;;;;;;;;5024998;28;20210;-68
2022/04/03 14:08:16;;;;;;;1.63;0.98;;;;;;;;;;5021324;28;20656;-68
2022/04/03 14:10:47;;;;;;;2.05;0.40;;;;;;;;;;5017679;28;20186;-68
2022/04/03 14:13:21;;;;;;;1.85;0.70;;;;;;;;;;5026794;28;20206;-68
2022/04/03 14:15:48;;;;;;;0.65;0.38;;;;;;;;;;5025060;28;20641;-68
2022/04/03 14:18:15;;;;;;;2.00;0.70;;;;;;;;;;5026268;28;20186;-68
2022/04/03 14:20:40;;;;;;;1.73;0.80;;;;;;;;;;5028142;28;20282;-68
2022/04/03 14:23:06;;;;;;;0.65;0.65;;;;;;;;;;5014671;28;20206;-67
2022/04/03 14:25:31;;;;;;;0.50;0.50;;;;;;;;;;5018192;28;20179;-68
2022/04/03 14:27:57;;;;;;;0.70;0.52;;;;;;;;;;5018928;28;20241;-68
2022/04/03 14:30:23;;;;;;;1.77;0.52;;;;;;;;;;5014492;28;20170;-68
2022/04/03 14:32:49;;;;;;;0.52;0.32;;;;;;;;;;5017246;28;20205;-69
2022/04/03 14:35:15;;;;;;;1.15;0.60;;;;;;;;;;5024489;28;20221;-68
2022/04/03 14:37:42;;;;;;;1.38;0.55;;;;;;;;;;5027795;28;20294;-68
2022/04/03 14:40:09;;;;;;;1.65;0.40;;;;;;;;;;5017938;28;20300;-68
2022/04/03 14:42:35;;;;;;;1.70;0.52;;;;;;;;;;5025607;28;20190;-68
2022/04/03 14:45:00;;;;;;;2.40;0.60;;;;;;;;;;5023019;28;20182;-68
2022/04/03 14:47:25;;;;;;;1.10;0.40;;;;;;;;;;5027345;28;20244;-68
2022/04/03 14:49:51;;;;;;;1.20;0.40;;;;;;;;;;5026873;28;20182;-68